sensor_id;sensor_type;location;lat;lon;timestamp;temperature;humidity
3954;DHT22;1991;48.682;9.030;2023-08-24T00:02:01;20.70;99.50
3954;DHT22;1991;48.682;9.030;2023-08-24T00:04:27;20.70;99.70
3954;DHT22;1991;48.682;9.030;2023-08-24T00:06:53;20.70;99.90
3954;DHT22;1991;48.682;9.030;2023-08-24T00:09:19;20.60;99.90
3954;DHT22;1991;48.682;9.030;2023-08-24T00:11:44;20.60;99.90
3954;DHT22;1991;48.682;9.030;2023-08-24T00:14:10;20.40;99.90
3954;DHT22;1991;48.682;9.030;2023-08-24T00:16:35;20.30;99.90
3954;DHT22;1991;48.682;9.030;2023-08-24T00:19:01;20.30;99.90
3954;DHT22;1991;48.682;9.030;2023-08-24T00:21:27;20.30;99.90
3954;DHT22;1991;48.682;9.030;2023-08-24T00:23:54;20.30;99.90
3954;DHT22;1991;48.682;9.030;2023-08-24T00:26:19;20.30;99.90
3954;DHT22;1991;48.682;9.030;2023-08-24T00:28:45;20.30;99.90
3954;DHT22;1991;48.682;9.030;2023-08-24T00:31:11;20.30;99.90
3954;DHT22;1991;48.682;9.030;2023-08-24T00:33:37;20.30;99.90
3954;DHT22;1991;48.682;9.030;2023-08-24T00:36:04;20.30;99.90
3954;DHT22;1991;48.682;9.030;2023-08-24T00:38:30;20.20;99.90
3954;DHT22;1991;48.682;9.030;2023-08-24T00:40:57;20.30;99.90
3954;DHT22;1991;48.682;9.030;2023-08-24T00:43:26;20.30;99.90
3954;DHT22;1991;48.682;9.030;2023-08-24T00:45:55;20.30;99.90
3954;DHT22;1991;48.682;9.030;2023-08-24T00:48:22;20.20;99.90
3954;DHT22;1991;48.682;9.030;2023-08-24T00:50:52;20.20;99.90
3954;DHT22;1991;48.682;9.030;2023-08-24T00:53:19;20.10;99.90
3954;DHT22;1991;48.682;9.030;2023-08-24T00:55:45;20.10;99.90
3954;DHT22;1991;48.682;9.030;2023-08-24T00:58:11;20.10;99.90
3954;DHT22;1991;48.682;9.030;2023-08-24T01:00:37;20.00;99.90
3954;DHT22;1991;48.682;9.030;2023-08-24T01:03:03;20.00;99.90
3954;DHT22;1991;48.682;9.030;2023-08-24T01:05:29;19.90;99.90
3954;DHT22;1991;48.682;9.030;2023-08-24T01:07:54;19.90;99.90
3954;DHT22;1991;48.682;9.030;2023-08-24T01:10:20;20.00;99.90
3954;DHT22;1991;48.682;9.030;2023-08-24T01:13:08;19.90;99.90
3954;DHT22;1991;48.682;9.030;2023-08-24T01:15:42;19.90;99.90
3954;DHT22;1991;48.682;9.030;2023-08-24T01:18:14;19.90;99.90
3954;DHT22;1991;48.682;9.030;2023-08-24T01:20:42;19.90;99.90
3954;DHT22;1991;48.682;9.030;2023-08-24T01:25:42;19.80;99.90
3954;DHT22;1991;48.682;9.030;2023-08-24T01:28:12;19.90;99.90
3954;DHT22;1991;48.682;9.030;2023-08-24T01:30:38;19.80;99.90
3954;DHT22;1991;48.682;9.030;2023-08-24T01:33:04;19.90;99.90
3954;DHT22;1991;48.682;9.030;2023-08-24T01:35:30;19.80;99.90
3954;DHT22;1991;48.682;9.030;2023-08-24T01:37:57;19.80;99.90
3954;DHT22;1991;48.682;9.030;2023-08-24T01:40:39;19.70;99.90
3954;DHT22;1991;48.682;9.030;2023-08-24T01:43:10;19.70;99.90
3954;DHT22;1991;48.682;9.030;2023-08-24T01:45:35;19.70;99.90
3954;DHT22;1991;48.682;9.030;2023-08-24T01:48:03;19.70;99.90
3954;DHT22;1991;48.682;9.030;2023-08-24T01:50:29;19.70;99.90
3954;DHT22;1991;48.682;9.030;2023-08-24T01:52:56;19.70;99.90
3954;DHT22;1991;48.682;9.030;2023-08-24T01:55:23;19.60;99.90
3954;DHT22;1991;48.682;9.030;2023-08-24T01:57:49;19.60;99.90
3954;DHT22;1991;48.682;9.030;2023-08-24T02:00:14;19.60;99.90
3954;DHT22;1991;48.682;9.030;2023-08-24T02:02:42;19.60;99.90
3954;DHT22;1991;48.682;9.030;2023-08-24T02:05:07;19.60;99.90
3954;DHT22;1991;48.682;9.030;2023-08-24T02:07:33;19.50;99.90
3954;DHT22;1991;48.682;9.030;2023-08-24T02:09:59;19.50;99.90
3954;DHT22;1991;48.682;9.030;2023-08-24T02:12:24;19.50;99.90
3954;DHT22;1991;48.682;9.030;2023-08-24T02:14:50;19.50;99.90
3954;DHT22;1991;48.682;9.030;2023-08-24T02:17:15;19.30;99.90
3954;DHT22;1991;48.682;9.030;2023-08-24T02:19:41;19.30;99.90
3954;DHT22;1991;48.682;9.030;2023-08-24T02:22:07;19.30;99.90
3954;DHT22;1991;48.682;9.030;2023-08-24T02:24:33;19.30;99.90
3954;DHT22;1991;48.682;9.030;2023-08-24T02:26:59;19.30;99.90
3954;DHT22;1991;48.682;9.030;2023-08-24T02:29:24;19.30;99.90
3954;DHT22;1991;48.682;9.030;2023-08-24T02:31:50;19.30;99.90
3954;DHT22;1991;48.682;9.030;2023-08-24T02:34:16;19.20;99.90
3954;DHT22;1991;48.682;9.030;2023-08-24T02:36:42;19.20;99.90
3954;DHT22;1991;48.682;9.030;2023-08-24T02:39:07;19.20;99.90
3954;DHT22;1991;48.682;9.030;2023-08-24T02:41:34;19.10;99.90
3954;DHT22;1991;48.682;9.030;2023-08-24T02:44:00;19.00;99.90
3954;DHT22;1991;48.682;9.030;2023-08-24T02:46:26;19.00;99.90
3954;DHT22;1991;48.682;9.030;2023-08-24T02:48:51;19.10;99.90
3954;DHT22;1991;48.682;9.030;2023-08-24T02:51:17;19.10;99.90
3954;DHT22;1991;48.682;9.030;2023-08-24T02:53:42;19.10;99.90
3954;DHT22;1991;48.682;9.030;2023-08-24T02:56:08;19.10;99.90
3954;DHT22;1991;48.682;9.030;2023-08-24T02:58:34;19.20;99.90
3954;DHT22;1991;48.682;9.030;2023-08-24T03:01:06;19.30;99.90
3954;DHT22;1991;48.682;9.030;2023-08-24T03:03:33;19.30;99.90
3954;DHT22;1991;48.682;9.030;2023-08-24T03:06:01;19.30;99.90
3954;DHT22;1991;48.682;9.030;2023-08-24T03:08:28;19.20;99.90
3954;DHT22;1991;48.682;9.030;2023-08-24T03:10:53;19.20;99.90
3954;DHT22;1991;48.682;9.030;2023-08-24T03:13:19;19.20;99.90
3954;DHT22;1991;48.682;9.030;2023-08-24T03:15:44;19.10;99.90
3954;DHT22;1991;48.682;9.030;2023-08-24T03:18:14;19.20;99.90
3954;DHT22;1991;48.682;9.030;2023-08-24T03:20:40;19.20;99.90
3954;DHT22;1991;48.682;9.030;2023-08-24T03:23:07;19.20;99.90
3954;DHT22;1991;48.682;9.030;2023-08-24T03:25:36;19.20;99.90
3954;DHT22;1991;48.682;9.030;2023-08-24T03:28:03;19.10;99.90
3954;DHT22;1991;48.682;9.030;2023-08-24T03:30:28;19.20;99.90
3954;DHT22;1991;48.682;9.030;2023-08-24T03:32:54;19.20;99.90
3954;DHT22;1991;48.682;9.030;2023-08-24T03:35:20;19.10;99.90
3954;DHT22;1991;48.682;9.030;2023-08-24T03:37:45;19.10;99.90
3954;DHT22;1991;48.682;9.030;2023-08-24T03:40:12;19.00;99.90
3954;DHT22;1991;48.682;9.030;2023-08-24T03:42:37;19.00;99.90
3954;DHT22;1991;48.682;9.030;2023-08-24T03:45:03;19.10;99.90
3954;DHT22;1991;48.682;9.030;2023-08-24T03:47:29;19.10;99.90
3954;DHT22;1991;48.682;9.030;2023-08-24T03:49:54;19.10;99.90
3954;DHT22;1991;48.682;9.030;2023-08-24T03:52:20;19.10;99.90
3954;DHT22;1991;48.682;9.030;2023-08-24T03:54:46;19.10;99.90
3954;DHT22;1991;48.682;9.030;2023-08-24T03:57:11;19.20;99.90
3954;DHT22;1991;48.682;9.030;2023-08-24T03:59:37;19.20;99.90
3954;DHT22;1991;48.682;9.030;2023-08-24T04:02:02;19.20;99.90
3954;DHT22;1991;48.682;9.030;2023-08-24T04:04:29;19.20;99.90
3954;DHT22;1991;48.682;9.030;2023-08-24T04:06:55;19.20;99.90
3954;DHT22;1991;48.682;9.030;2023-08-24T04:09:21;19.10;99.90
3954;DHT22;1991;48.682;9.030;2023-08-24T04:11:46;19.00;99.90
3954;DHT22;1991;48.682;9.030;2023-08-24T04:14:12;19.10;99.90
3954;DHT22;1991;48.682;9.030;2023-08-24T04:16:39;19.10;99.90
3954;DHT22;1991;48.682;9.030;2023-08-24T04:19:04;19.10;99.90
3954;DHT22;1991;48.682;9.030;2023-08-24T04:21:30;19.20;99.90
3954;DHT22;1991;48.682;9.030;2023-08-24T04:23:56;19.20;99.90
3954;DHT22;1991;48.682;9.030;2023-08-24T04:26:21;19.20;99.90
3954;DHT22;1991;48.682;9.030;2023-08-24T04:28:47;19.10;99.90
3954;DHT22;1991;48.682;9.030;2023-08-24T04:31:12;19.10;99.90
3954;DHT22;1991;48.682;9.030;2023-08-24T04:33:38;19.10;99.90
3954;DHT22;1991;48.682;9.030;2023-08-24T04:36:04;19.10;99.90
3954;DHT22;1991;48.682;9.030;2023-08-24T04:38:29;19.20;99.90
3954;DHT22;1991;48.682;9.030;2023-08-24T04:40:56;19.20;99.90
3954;DHT22;1991;48.682;9.030;2023-08-24T04:43:23;19.30;99.90
3954;DHT22;1991;48.682;9.030;2023-08-24T04:45:50;19.30;99.90
3954;DHT22;1991;48.682;9.030;2023-08-24T04:48:19;19.30;99.90
3954;DHT22;1991;48.682;9.030;2023-08-24T04:50:46;19.30;99.90
3954;DHT22;1991;48.682;9.030;2023-08-24T04:53:16;19.30;99.90
3954;DHT22;1991;48.682;9.030;2023-08-24T04:55:42;19.40;99.90
3954;DHT22;1991;48.682;9.030;2023-08-24T04:58:11;19.40;99.90
3954;DHT22;1991;48.682;9.030;2023-08-24T05:00:37;19.50;99.90
3954;DHT22;1991;48.682;9.030;2023-08-24T05:03:04;19.50;99.90
3954;DHT22;1991;48.682;9.030;2023-08-24T05:05:31;19.60;99.90
3954;DHT22;1991;48.682;9.030;2023-08-24T05:07:58;19.60;99.90
3954;DHT22;1991;48.682;9.030;2023-08-24T05:10:24;19.70;99.90
3954;DHT22;1991;48.682;9.030;2023-08-24T05:12:50;19.80;99.90
3954;DHT22;1991;48.682;9.030;2023-08-24T05:15:16;19.90;99.90
3954;DHT22;1991;48.682;9.030;2023-08-24T05:17:41;19.90;99.90
3954;DHT22;1991;48.682;9.030;2023-08-24T05:20:08;20.00;99.90
3954;DHT22;1991;48.682;9.030;2023-08-24T05:22:36;20.10;99.90
3954;DHT22;1991;48.682;9.030;2023-08-24T05:25:01;20.10;99.90
3954;DHT22;1991;48.682;9.030;2023-08-24T05:27:27;20.20;99.90
3954;DHT22;1991;48.682;9.030;2023-08-24T05:29:52;20.20;99.90
3954;DHT22;1991;48.682;9.030;2023-08-24T05:32:18;20.30;99.90
3954;DHT22;1991;48.682;9.030;2023-08-24T05:34:45;20.30;99.90
3954;DHT22;1991;48.682;9.030;2023-08-24T05:37:11;20.40;99.90
3954;DHT22;1991;48.682;9.030;2023-08-24T05:39:36;20.40;99.90
3954;DHT22;1991;48.682;9.030;2023-08-24T05:42:02;20.40;99.90
3954;DHT22;1991;48.682;9.030;2023-08-24T05:44:28;20.40;99.90
3954;DHT22;1991;48.682;9.030;2023-08-24T05:46:53;20.50;99.90
3954;DHT22;1991;48.682;9.030;2023-08-24T05:49:19;20.60;99.90
3954;DHT22;1991;48.682;9.030;2023-08-24T05:51:44;20.60;99.90
3954;DHT22;1991;48.682;9.030;2023-08-24T05:54:10;20.70;99.90
3954;DHT22;1991;48.682;9.030;2023-08-24T05:56:35;20.80;99.90
3954;DHT22;1991;48.682;9.030;2023-08-24T05:59:01;20.90;99.90
3954;DHT22;1991;48.682;9.030;2023-08-24T06:01:27;21.00;99.90
3954;DHT22;1991;48.682;9.030;2023-08-24T06:03:52;21.00;99.90
3954;DHT22;1991;48.682;9.030;2023-08-24T06:06:18;21.10;99.90
3954;DHT22;1991;48.682;9.030;2023-08-24T06:08:43;21.10;99.90
3954;DHT22;1991;48.682;9.030;2023-08-24T06:11:09;21.20;99.90
3954;DHT22;1991;48.682;9.030;2023-08-24T06:13:35;21.10;99.90
3954;DHT22;1991;48.682;9.030;2023-08-24T06:16:00;21.20;99.90
3954;DHT22;1991;48.682;9.030;2023-08-24T06:18:27;21.20;99.90
3954;DHT22;1991;48.682;9.030;2023-08-24T06:20:53;21.20;99.90
3954;DHT22;1991;48.682;9.030;2023-08-24T06:23:19;21.30;99.90
3954;DHT22;1991;48.682;9.030;2023-08-24T06:25:45;21.30;99.90
3954;DHT22;1991;48.682;9.030;2023-08-24T06:28:12;21.30;99.90
3954;DHT22;1991;48.682;9.030;2023-08-24T06:30:41;21.40;99.90
3954;DHT22;1991;48.682;9.030;2023-08-24T06:33:08;21.40;99.90
3954;DHT22;1991;48.682;9.030;2023-08-24T06:35:36;21.40;99.90
3954;DHT22;1991;48.682;9.030;2023-08-24T06:38:03;21.50;99.90
3954;DHT22;1991;48.682;9.030;2023-08-24T06:40:29;21.50;99.90
3954;DHT22;1991;48.682;9.030;2023-08-24T06:42:55;21.60;99.90
3954;DHT22;1991;48.682;9.030;2023-08-24T06:45:20;21.60;99.90
3954;DHT22;1991;48.682;9.030;2023-08-24T06:47:46;21.60;99.90
3954;DHT22;1991;48.682;9.030;2023-08-24T06:50:12;21.70;99.90
3954;DHT22;1991;48.682;9.030;2023-08-24T06:52:38;21.70;99.90
3954;DHT22;1991;48.682;9.030;2023-08-24T06:55:04;21.80;99.90
3954;DHT22;1991;48.682;9.030;2023-08-24T06:57:30;21.80;99.90
3954;DHT22;1991;48.682;9.030;2023-08-24T06:59:56;21.80;99.90
3954;DHT22;1991;48.682;9.030;2023-08-24T07:02:21;21.90;99.90
3954;DHT22;1991;48.682;9.030;2023-08-24T07:04:48;21.90;99.90
3954;DHT22;1991;48.682;9.030;2023-08-24T07:07:14;22.00;99.90
3954;DHT22;1991;48.682;9.030;2023-08-24T07:09:39;22.00;99.90
3954;DHT22;1991;48.682;9.030;2023-08-24T07:12:05;22.10;99.90
3954;DHT22;1991;48.682;9.030;2023-08-24T07:14:36;22.10;99.90
3954;DHT22;1991;48.682;9.030;2023-08-24T07:17:01;22.20;99.90
3954;DHT22;1991;48.682;9.030;2023-08-24T07:19:27;22.20;99.90
3954;DHT22;1991;48.682;9.030;2023-08-24T07:21:53;22.30;99.90
3954;DHT22;1991;48.682;9.030;2023-08-24T07:24:19;22.50;99.90
3954;DHT22;1991;48.682;9.030;2023-08-24T07:26:46;22.90;99.90
3954;DHT22;1991;48.682;9.030;2023-08-24T07:29:11;23.30;99.90
3954;DHT22;1991;48.682;9.030;2023-08-24T07:31:37;23.80;99.90
3954;DHT22;1991;48.682;9.030;2023-08-24T07:34:03;24.50;99.90
3954;DHT22;1991;48.682;9.030;2023-08-24T07:36:30;25.00;99.60
3954;DHT22;1991;48.682;9.030;2023-08-24T07:38:55;25.50;98.60
3954;DHT22;1991;48.682;9.030;2023-08-24T07:41:21;25.80;97.90
3954;DHT22;1991;48.682;9.030;2023-08-24T07:43:47;26.20;97.40
3954;DHT22;1991;48.682;9.030;2023-08-24T07:46:12;26.60;96.70
3954;DHT22;1991;48.682;9.030;2023-08-24T07:48:38;26.90;95.50
3954;DHT22;1991;48.682;9.030;2023-08-24T07:51:04;27.30;94.30
3954;DHT22;1991;48.682;9.030;2023-08-24T07:53:29;27.60;93.40
3954;DHT22;1991;48.682;9.030;2023-08-24T07:55:55;28.00;91.90
3954;DHT22;1991;48.682;9.030;2023-08-24T07:58:24;28.10;90.80
3954;DHT22;1991;48.682;9.030;2023-08-24T08:00:50;28.40;90.40
3954;DHT22;1991;48.682;9.030;2023-08-24T08:03:17;28.60;89.40
3954;DHT22;1991;48.682;9.030;2023-08-24T08:05:43;28.90;87.80
3954;DHT22;1991;48.682;9.030;2023-08-24T08:08:08;29.20;87.40
3954;DHT22;1991;48.682;9.030;2023-08-24T08:10:34;29.40;83.90
3954;DHT22;1991;48.682;9.030;2023-08-24T08:12:59;29.40;82.50
3954;DHT22;1991;48.682;9.030;2023-08-24T08:15:25;29.50;81.20
3954;DHT22;1991;48.682;9.030;2023-08-24T08:17:51;29.60;80.40
3954;DHT22;1991;48.682;9.030;2023-08-24T08:20:16;29.80;80.00
3954;DHT22;1991;48.682;9.030;2023-08-24T08:22:42;29.90;78.60
3954;DHT22;1991;48.682;9.030;2023-08-24T08:25:08;30.00;77.50
3954;DHT22;1991;48.682;9.030;2023-08-24T08:27:33;30.20;77.20
3954;DHT22;1991;48.682;9.030;2023-08-24T08:29:59;30.40;77.30
3954;DHT22;1991;48.682;9.030;2023-08-24T08:32:25;30.60;75.40
3954;DHT22;1991;48.682;9.030;2023-08-24T08:34:53;30.80;76.60
3954;DHT22;1991;48.682;9.030;2023-08-24T08:37:20;31.00;73.70
3954;DHT22;1991;48.682;9.030;2023-08-24T08:39:46;31.20;73.20
3954;DHT22;1991;48.682;9.030;2023-08-24T08:42:13;31.20;72.70
3954;DHT22;1991;48.682;9.030;2023-08-24T08:44:39;31.20;72.20
3954;DHT22;1991;48.682;9.030;2023-08-24T08:47:06;31.00;72.20
3954;DHT22;1991;48.682;9.030;2023-08-24T08:49:34;31.10;73.30
3954;DHT22;1991;48.682;9.030;2023-08-24T08:52:01;31.30;72.60
3954;DHT22;1991;48.682;9.030;2023-08-24T08:54:27;31.40;71.60
3954;DHT22;1991;48.682;9.030;2023-08-24T08:56:53;31.50;70.90
3954;DHT22;1991;48.682;9.030;2023-08-24T08:59:21;31.80;70.70
3954;DHT22;1991;48.682;9.030;2023-08-24T09:01:47;31.90;70.20
3954;DHT22;1991;48.682;9.030;2023-08-24T09:04:13;31.90;70.40
3954;DHT22;1991;48.682;9.030;2023-08-24T09:06:39;32.10;69.80
3954;DHT22;1991;48.682;9.030;2023-08-24T09:09:05;32.20;69.30
3954;DHT22;1991;48.682;9.030;2023-08-24T09:11:33;32.40;68.80
3954;DHT22;1991;48.682;9.030;2023-08-24T09:13:58;32.40;68.00
3954;DHT22;1991;48.682;9.030;2023-08-24T09:16:29;32.40;68.30
3954;DHT22;1991;48.682;9.030;2023-08-24T09:18:55;32.20;68.10
3954;DHT22;1991;48.682;9.030;2023-08-24T09:21:20;32.10;68.30
3954;DHT22;1991;48.682;9.030;2023-08-24T09:23:53;32.20;68.40
3954;DHT22;1991;48.682;9.030;2023-08-24T09:26:34;32.10;68.60
3954;DHT22;1991;48.682;9.030;2023-08-24T09:29:05;32.40;67.70
3954;DHT22;1991;48.682;9.030;2023-08-24T09:31:37;32.80;66.70
3954;DHT22;1991;48.682;9.030;2023-08-24T09:34:03;34.00;65.10
3954;DHT22;1991;48.682;9.030;2023-08-24T09:36:38;37.20;62.70
3954;DHT22;1991;48.682;9.030;2023-08-24T09:39:05;40.50;57.80
3954;DHT22;1991;48.682;9.030;2023-08-24T09:41:40;43.50;52.70
3954;DHT22;1991;48.682;9.030;2023-08-24T09:44:06;46.10;48.00
3954;DHT22;1991;48.682;9.030;2023-08-24T09:46:35;47.60;45.20
3954;DHT22;1991;48.682;9.030;2023-08-24T09:49:01;47.90;43.20
3954;DHT22;1991;48.682;9.030;2023-08-24T09:51:28;48.60;42.50
3954;DHT22;1991;48.682;9.030;2023-08-24T09:53:57;48.80;41.50
3954;DHT22;1991;48.682;9.030;2023-08-24T09:56:25;48.70;41.70
3954;DHT22;1991;48.682;9.030;2023-08-24T09:58:54;49.20;40.70
3954;DHT22;1991;48.682;9.030;2023-08-24T10:01:20;48.50;40.10
3954;DHT22;1991;48.682;9.030;2023-08-24T10:03:50;45.60;40.70
3954;DHT22;1991;48.682;9.030;2023-08-24T10:06:19;42.80;43.10
3954;DHT22;1991;48.682;9.030;2023-08-24T10:08:48;40.30;45.90
3954;DHT22;1991;48.682;9.030;2023-08-24T10:11:19;39.00;48.10
3954;DHT22;1991;48.682;9.030;2023-08-24T10:14:02;37.70;49.80
3954;DHT22;1991;48.682;9.030;2023-08-24T10:16:33;37.10;51.60
3954;DHT22;1991;48.682;9.030;2023-08-24T10:19:01;36.40;52.00
3954;DHT22;1991;48.682;9.030;2023-08-24T10:21:28;36.10;53.20
3954;DHT22;1991;48.682;9.030;2023-08-24T10:23:56;35.40;53.40
3954;DHT22;1991;48.682;9.030;2023-08-24T10:26:23;34.90;54.80
3954;DHT22;1991;48.682;9.030;2023-08-24T10:28:50;34.40;55.90
3954;DHT22;1991;48.682;9.030;2023-08-24T10:31:16;34.40;56.30
3954;DHT22;1991;48.682;9.030;2023-08-24T10:33:45;34.20;56.60
3954;DHT22;1991;48.682;9.030;2023-08-24T10:36:12;34.20;57.00
3954;DHT22;1991;48.682;9.030;2023-08-24T10:38:42;34.30;57.30
3954;DHT22;1991;48.682;9.030;2023-08-24T10:41:08;34.50;57.20
3954;DHT22;1991;48.682;9.030;2023-08-24T10:43:38;34.60;56.90
3954;DHT22;1991;48.682;9.030;2023-08-24T10:46:05;34.80;56.90
3954;DHT22;1991;48.682;9.030;2023-08-24T10:53:44;34.30;58.30
3954;DHT22;1991;48.682;9.030;2023-08-24T10:56:15;34.20;57.80
3954;DHT22;1991;48.682;9.030;2023-08-24T10:58:42;34.30;57.90
3954;DHT22;1991;48.682;9.030;2023-08-24T11:01:14;34.20;58.00
3954;DHT22;1991;48.682;9.030;2023-08-24T11:03:40;34.50;58.10
3954;DHT22;1991;48.682;9.030;2023-08-24T11:06:18;34.30;57.80
3954;DHT22;1991;48.682;9.030;2023-08-24T11:08:46;34.50;58.30
3954;DHT22;1991;48.682;9.030;2023-08-24T11:11:21;34.80;57.50
3954;DHT22;1991;48.682;9.030;2023-08-24T11:14:16;34.70;57.50
3954;DHT22;1991;48.682;9.030;2023-08-24T11:16:44;34.70;58.10
3954;DHT22;1991;48.682;9.030;2023-08-24T11:19:11;34.80;57.70
3954;DHT22;1991;48.682;9.030;2023-08-24T11:21:41;34.60;57.70
3954;DHT22;1991;48.682;9.030;2023-08-24T11:24:07;34.30;58.30
3954;DHT22;1991;48.682;9.030;2023-08-24T11:26:34;34.20;58.80
3954;DHT22;1991;48.682;9.030;2023-08-24T11:29:00;34.30;58.60
3954;DHT22;1991;48.682;9.030;2023-08-24T11:31:29;34.70;58.70
3954;DHT22;1991;48.682;9.030;2023-08-24T11:33:55;34.90;58.30
3954;DHT22;1991;48.682;9.030;2023-08-24T11:36:21;34.90;58.10
3954;DHT22;1991;48.682;9.030;2023-08-24T11:38:49;35.10;58.10
3954;DHT22;1991;48.682;9.030;2023-08-24T11:41:17;35.20;58.00
3954;DHT22;1991;48.682;9.030;2023-08-24T11:43:44;35.50;57.70
3954;DHT22;1991;48.682;9.030;2023-08-24T11:46:09;35.40;57.50
3954;DHT22;1991;48.682;9.030;2023-08-24T11:48:35;35.40;57.60
3954;DHT22;1991;48.682;9.030;2023-08-24T11:51:02;35.30;57.70
3954;DHT22;1991;48.682;9.030;2023-08-24T11:53:29;35.00;58.30
3954;DHT22;1991;48.682;9.030;2023-08-24T11:55:57;34.40;58.50
3954;DHT22;1991;48.682;9.030;2023-08-24T11:58:23;34.40;59.30
3954;DHT22;1991;48.682;9.030;2023-08-24T12:00:49;34.40;59.40
3954;DHT22;1991;48.682;9.030;2023-08-24T12:03:15;34.30;59.10
3954;DHT22;1991;48.682;9.030;2023-08-24T12:05:41;34.40;59.10
3954;DHT22;1991;48.682;9.030;2023-08-24T12:08:06;34.40;58.70
3954;DHT22;1991;48.682;9.030;2023-08-24T12:10:32;34.50;59.00
3954;DHT22;1991;48.682;9.030;2023-08-24T12:13:06;34.80;58.70
3954;DHT22;1991;48.682;9.030;2023-08-24T12:15:34;34.50;59.30
3954;DHT22;1991;48.682;9.030;2023-08-24T12:18:13;34.90;58.60
3954;DHT22;1991;48.682;9.030;2023-08-24T12:20:40;35.00;58.40
3954;DHT22;1991;48.682;9.030;2023-08-24T12:23:06;35.00;58.40
3954;DHT22;1991;48.682;9.030;2023-08-24T12:25:36;35.30;58.30
3954;DHT22;1991;48.682;9.030;2023-08-24T12:33:27;35.20;58.50
3954;DHT22;1991;48.682;9.030;2023-08-24T12:35:54;35.40;58.30
3954;DHT22;1991;48.682;9.030;2023-08-24T12:38:21;35.30;57.10
3954;DHT22;1991;48.682;9.030;2023-08-24T12:40:47;35.30;57.50
3954;DHT22;1991;48.682;9.030;2023-08-24T12:43:12;35.50;57.30
3954;DHT22;1991;48.682;9.030;2023-08-24T12:45:39;35.50;57.40
3954;DHT22;1991;48.682;9.030;2023-08-24T12:48:05;35.50;57.20
3954;DHT22;1991;48.682;9.030;2023-08-24T12:50:32;35.30;57.20
3954;DHT22;1991;48.682;9.030;2023-08-24T12:52:58;35.20;56.40
3954;DHT22;1991;48.682;9.030;2023-08-24T12:55:26;35.10;56.80
3954;DHT22;1991;48.682;9.030;2023-08-24T12:57:51;35.00;56.80
3954;DHT22;1991;48.682;9.030;2023-08-24T13:00:18;35.00;57.00
3954;DHT22;1991;48.682;9.030;2023-08-24T13:02:44;35.10;57.00
3954;DHT22;1991;48.682;9.030;2023-08-24T13:05:10;35.40;56.80
3954;DHT22;1991;48.682;9.030;2023-08-24T13:07:36;35.80;56.60
3954;DHT22;1991;48.682;9.030;2023-08-24T13:10:02;35.90;55.50
3954;DHT22;1991;48.682;9.030;2023-08-24T13:12:28;36.00;54.40
3954;DHT22;1991;48.682;9.030;2023-08-24T13:14:54;35.90;54.20
3954;DHT22;1991;48.682;9.030;2023-08-24T13:17:20;36.00;54.80
3954;DHT22;1991;48.682;9.030;2023-08-24T13:19:45;36.20;54.50
3954;DHT22;1991;48.682;9.030;2023-08-24T13:22:11;36.50;54.00
3954;DHT22;1991;48.682;9.030;2023-08-24T13:24:36;36.70;53.40
3954;DHT22;1991;48.682;9.030;2023-08-24T13:27:04;36.80;53.40
3954;DHT22;1991;48.682;9.030;2023-08-24T13:29:30;36.60;54.50
3954;DHT22;1991;48.682;9.030;2023-08-24T13:31:55;36.30;53.70
3954;DHT22;1991;48.682;9.030;2023-08-24T13:34:21;36.50;54.20
3954;DHT22;1991;48.682;9.030;2023-08-24T13:36:46;36.80;52.60
3954;DHT22;1991;48.682;9.030;2023-08-24T13:39:12;36.80;52.10
3954;DHT22;1991;48.682;9.030;2023-08-24T13:41:37;36.30;52.00
3954;DHT22;1991;48.682;9.030;2023-08-24T13:44:03;35.90;53.00
3954;DHT22;1991;48.682;9.030;2023-08-24T13:46:29;35.80;53.30
3954;DHT22;1991;48.682;9.030;2023-08-24T13:48:54;35.80;53.40
3954;DHT22;1991;48.682;9.030;2023-08-24T13:51:20;36.00;53.10
3954;DHT22;1991;48.682;9.030;2023-08-24T13:53:47;35.60;52.20
3954;DHT22;1991;48.682;9.030;2023-08-24T13:56:13;35.60;52.70
3954;DHT22;1991;48.682;9.030;2023-08-24T13:58:38;35.40;52.90
3954;DHT22;1991;48.682;9.030;2023-08-24T14:01:04;35.40;53.20
3954;DHT22;1991;48.682;9.030;2023-08-24T14:03:29;34.90;54.50
3954;DHT22;1991;48.682;9.030;2023-08-24T14:05:56;34.60;54.40
3954;DHT22;1991;48.682;9.030;2023-08-24T14:08:22;34.20;55.20
3954;DHT22;1991;48.682;9.030;2023-08-24T14:10:47;34.00;56.30
3954;DHT22;1991;48.682;9.030;2023-08-24T14:13:16;33.90;56.70
3954;DHT22;1991;48.682;9.030;2023-08-24T14:15:41;33.80;56.80
3954;DHT22;1991;48.682;9.030;2023-08-24T14:18:07;33.80;57.10
3954;DHT22;1991;48.682;9.030;2023-08-24T14:20:33;33.70;57.50
3954;DHT22;1991;48.682;9.030;2023-08-24T14:22:59;33.70;57.40
3954;DHT22;1991;48.682;9.030;2023-08-24T14:25:24;33.70;57.60
3954;DHT22;1991;48.682;9.030;2023-08-24T14:27:50;33.60;57.70
3954;DHT22;1991;48.682;9.030;2023-08-24T14:30:15;33.50;58.30
3954;DHT22;1991;48.682;9.030;2023-08-24T14:32:41;33.40;58.00
3954;DHT22;1991;48.682;9.030;2023-08-24T14:35:07;33.40;58.40
3954;DHT22;1991;48.682;9.030;2023-08-24T14:37:33;33.20;59.20
3954;DHT22;1991;48.682;9.030;2023-08-24T14:39:59;33.10;60.00
3954;DHT22;1991;48.682;9.030;2023-08-24T14:42:24;33.00;60.10
3954;DHT22;1991;48.682;9.030;2023-08-24T14:44:50;32.90;60.20
3954;DHT22;1991;48.682;9.030;2023-08-24T14:47:16;32.70;60.20
3954;DHT22;1991;48.682;9.030;2023-08-24T14:49:41;32.60;60.50
3954;DHT22;1991;48.682;9.030;2023-08-24T14:52:07;32.50;61.40
3954;DHT22;1991;48.682;9.030;2023-08-24T14:54:32;32.30;62.40
3954;DHT22;1991;48.682;9.030;2023-08-24T14:56:58;32.10;62.70
3954;DHT22;1991;48.682;9.030;2023-08-24T14:59:25;32.00;63.60
3954;DHT22;1991;48.682;9.030;2023-08-24T15:01:51;31.50;67.70
3954;DHT22;1991;48.682;9.030;2023-08-24T15:04:17;30.90;71.50
3954;DHT22;1991;48.682;9.030;2023-08-24T15:06:43;30.40;74.50
3954;DHT22;1991;48.682;9.030;2023-08-24T15:09:08;30.00;78.70
3954;DHT22;1991;48.682;9.030;2023-08-24T15:11:34;29.60;81.70
3954;DHT22;1991;48.682;9.030;2023-08-24T15:13:59;29.30;83.30
3954;DHT22;1991;48.682;9.030;2023-08-24T15:16:25;29.10;82.80
3954;DHT22;1991;48.682;9.030;2023-08-24T15:18:50;28.90;84.90
3954;DHT22;1991;48.682;9.030;2023-08-24T15:21:16;28.70;85.90
3954;DHT22;1991;48.682;9.030;2023-08-24T15:23:42;28.60;87.20
3954;DHT22;1991;48.682;9.030;2023-08-24T15:26:07;28.60;88.00
3954;DHT22;1991;48.682;9.030;2023-08-24T15:29:07;28.50;88.10
3954;DHT22;1991;48.682;9.030;2023-08-24T15:31:23;28.60;88.00
3954;DHT22;1991;48.682;9.030;2023-08-24T15:33:49;28.70;87.30
3954;DHT22;1991;48.682;9.030;2023-08-24T15:36:15;28.70;86.70
3954;DHT22;1991;48.682;9.030;2023-08-24T15:38:40;28.60;86.40
3954;DHT22;1991;48.682;9.030;2023-08-24T15:41:06;28.70;85.80
3954;DHT22;1991;48.682;9.030;2023-08-24T15:43:31;28.70;85.50
3954;DHT22;1991;48.682;9.030;2023-08-24T15:45:57;28.70;85.60
3954;DHT22;1991;48.682;9.030;2023-08-24T15:48:23;28.50;85.60
3954;DHT22;1991;48.682;9.030;2023-08-24T15:50:48;28.50;85.60
3954;DHT22;1991;48.682;9.030;2023-08-24T15:53:14;28.40;85.30
3954;DHT22;1991;48.682;9.030;2023-08-24T15:55:39;28.30;86.00
3954;DHT22;1991;48.682;9.030;2023-08-24T15:58:05;28.30;85.40
3954;DHT22;1991;48.682;9.030;2023-08-24T16:00:31;28.20;85.50
3954;DHT22;1991;48.682;9.030;2023-08-24T16:02:56;28.10;86.00
3954;DHT22;1991;48.682;9.030;2023-08-24T16:05:22;28.10;86.20
3954;DHT22;1991;48.682;9.030;2023-08-24T16:07:50;28.20;85.90
3954;DHT22;1991;48.682;9.030;2023-08-24T16:10:15;28.20;85.70
3954;DHT22;1991;48.682;9.030;2023-08-24T16:12:41;28.30;85.00